Terminal Aerodrome Forecast
Issued by NWS Paducah, KY

Home | Current Version | Previous Version | Text Only | Print | Product List | Glossary Off
Versions: 1 2 3 4 5 6 7 8 9 10 11 12 13 14 15 16 17 18 19 20 21

000
FTUS43 KPAH 010520
TAFEVV
TAF
KEVV 010520Z 0106/0206 03006KT P6SM VCSH SCT009 OVC015
     FM011500 04007KT P6SM BKN006
     FM011900 02008KT P6SM BKN017 OVC120
      TEMPO 0120/0123 P6SM -DZ OVC021
     FM020100 04005KT P6SM -DZ OVC025=

USA.gov is the U.S. government's official web portal to all federal, state and local government web resources and services.